createdAt,value
2018-08-09T00:00:30.048Z,74.10
2018-08-09T00:02:59.563Z,74.40
2018-08-09T00:05:29.887Z,74.70
2018-08-09T00:07:59.519Z,75.10
2018-08-09T00:10:32.834Z,75.30
2018-08-09T00:13:02.423Z,75.30
2018-08-09T00:15:32.039Z,75.30
2018-08-09T00:18:01.917Z,75.30
2018-08-09T00:20:34.963Z,75.60
2018-08-09T00:23:08.399Z,75.70
2018-08-09T00:25:38.600Z,75.40
2018-08-09T00:28:08.510Z,75.50
2018-08-09T00:30:41.054Z,76.10
2018-08-09T00:33:16.060Z,76.10
2018-08-09T00:35:47.192Z,76.00
2018-08-09T00:38:17.891Z,76.00
2018-08-09T00:40:48.768Z,75.90
2018-08-09T00:43:18.594Z,76.40
2018-08-09T00:45:48.292Z,76.60
2018-08-09T00:48:18.666Z,76.80
2018-08-09T00:50:49.195Z,76.80
2018-08-09T00:53:18.903Z,77.60
2018-08-09T00:55:49.744Z,77.20
2018-08-09T00:58:19.457Z,78.60
2018-08-09T01:00:49.327Z,77.80
2018-08-09T01:03:18.971Z,78.10
2018-08-09T01:05:49.822Z,78.50
2018-08-09T01:08:19.383Z,78.70
2018-08-09T01:10:49.095Z,78.70
2018-08-09T01:13:18.706Z,79.10
2018-08-09T01:15:48.351Z,79.10
2018-08-09T01:18:18.038Z,79.40
2018-08-09T01:20:47.643Z,80.00
2018-08-09T01:23:18.048Z,80.00
2018-08-09T01:25:47.684Z,82.40
2018-08-09T01:28:17.439Z,83.00
2018-08-09T01:30:47.112Z,82.50
2018-08-09T01:33:16.698Z,81.80
2018-08-09T01:35:46.308Z,81.60
2018-08-09T01:38:15.927Z,83.10
2018-08-09T01:40:45.539Z,81.80
2018-08-09T01:43:26.120Z,81.70
2018-08-09T01:45:55.675Z,81.70
2018-08-09T01:48:25.241Z,81.70
2018-08-09T01:50:54.973Z,81.70
2018-08-09T01:53:24.572Z,81.50
2018-08-09T01:55:54.075Z,81.20
2018-08-09T01:58:23.578Z,81.20
2018-08-09T02:00:53.125Z,81.10
2018-08-09T02:03:22.650Z,81.20
2018-08-09T02:05:52.319Z,81.10
2018-08-09T02:08:21.876Z,81.00
2018-08-09T02:10:51.376Z,81.00
2018-08-09T02:13:20.918Z,81.10
2018-08-09T02:15:50.813Z,81.60
2018-08-09T02:18:20.476Z,81.00
2018-08-09T02:20:51.707Z,81.00
2018-08-09T02:23:22.247Z,81.00
2018-08-09T02:25:53.417Z,80.80
2018-08-09T02:28:23.078Z,80.90
2018-08-09T02:30:52.643Z,80.90
2018-08-09T02:33:23.883Z,81.00
2018-08-09T02:35:54.317Z,81.10
2018-08-09T02:38:24.923Z,81.40
2018-08-09T02:40:54.797Z,81.40
2018-08-09T02:43:24.471Z,81.60
2018-08-09T02:45:55.551Z,81.80
2018-08-09T02:48:26.214Z,81.80
2018-08-09T02:50:59.721Z,81.80
2018-08-09T02:53:30.055Z,81.80
2018-08-09T02:55:59.696Z,81.90
2018-08-09T02:58:29.305Z,82.40
2018-08-09T03:00:58.895Z,82.00
2018-08-09T03:03:28.547Z,82.60
2018-08-09T03:05:59.295Z,82.80
2018-08-09T03:08:29.304Z,83.40
2018-08-09T03:11:00.250Z,83.30
2018-08-09T03:13:30.045Z,83.90
2018-08-09T03:15:59.656Z,84.60
2018-08-09T03:18:29.367Z,84.40
2018-08-09T03:20:59.134Z,84.50
2018-08-09T03:23:28.754Z,84.40
2018-08-09T03:25:58.408Z,84.50
2018-08-09T03:28:28.082Z,84.80
2018-08-09T03:30:57.732Z,84.70
2018-08-09T03:33:27.267Z,84.40
2018-08-09T03:35:56.954Z,84.60
2018-08-09T03:38:26.734Z,84.70
2018-08-09T03:40:56.499Z,84.30
2018-08-09T03:43:26.076Z,84.60
2018-08-09T03:45:55.712Z,84.50
2018-08-09T03:48:25.422Z,84.40
2018-08-09T03:50:55.040Z,84.30
2018-08-09T03:53:24.547Z,84.20
2018-08-09T03:55:54.161Z,84.20
2018-08-09T03:58:23.769Z,84.10
2018-08-09T04:00:53.302Z,84.10
2018-08-09T04:03:22.816Z,84.20
2018-08-09T04:05:52.347Z,84.30
2018-08-09T04:08:21.852Z,84.40
2018-08-09T04:10:51.416Z,84.40
2018-08-09T04:13:20.922Z,84.90
2018-08-09T04:15:50.739Z,84.70
2018-08-09T04:18:20.324Z,85.10
2018-08-09T04:20:49.809Z,85.10
2018-08-09T04:23:19.339Z,85.30
2018-08-09T04:25:48.904Z,85.30
2018-08-09T04:28:19.391Z,85.30
2018-08-09T04:30:49.486Z,85.30
2018-08-09T04:33:19.291Z,85.30
2018-08-09T04:35:49.070Z,85.20
2018-08-09T04:38:18.680Z,85.30
2018-08-09T04:40:48.341Z,85.30
2018-08-09T04:43:17.851Z,85.40
2018-08-09T04:45:47.394Z,85.00
2018-08-09T04:48:17.020Z,84.80
2018-08-09T04:50:46.613Z,84.70
2018-08-09T04:53:16.112Z,84.70
2018-08-09T04:55:45.648Z,84.60
2018-08-09T04:58:15.439Z,84.80
2018-08-09T05:00:44.952Z,85.60
2018-08-09T05:03:14.588Z,85.10
2018-08-09T05:05:44.210Z,85.10
2018-08-09T05:08:13.697Z,85.30
2018-08-09T05:10:43.191Z,85.30
2018-08-09T05:13:12.630Z,85.10
2018-08-09T05:15:42.193Z,85.70
2018-08-09T05:18:11.691Z,84.90
2018-08-09T05:20:41.212Z,84.90
2018-08-09T05:23:10.839Z,84.80
2018-08-09T05:25:40.319Z,85.20
2018-08-09T05:28:09.830Z,84.60
2018-08-09T05:30:39.394Z,84.40
2018-08-09T05:33:08.907Z,85.30
2018-08-09T05:35:38.512Z,84.50
2018-08-09T05:38:08.124Z,84.70
2018-08-09T05:40:37.570Z,84.80
2018-08-09T05:43:07.152Z,84.90
2018-08-09T05:45:36.709Z,85.00
2018-08-09T05:48:06.431Z,85.20
2018-08-09T05:50:35.953Z,85.30
2018-08-09T05:53:05.508Z,85.30
2018-08-09T05:55:34.943Z,85.40
2018-08-09T05:58:04.504Z,85.70
2018-08-09T06:00:34.017Z,85.50
2018-08-09T06:03:03.576Z,85.50
2018-08-09T06:05:33.092Z,85.10
2018-08-09T06:08:02.518Z,85.20
2018-08-09T06:10:32.003Z,85.60
2018-08-09T06:13:01.462Z,85.40
2018-08-09T06:15:30.936Z,85.00
2018-08-09T06:18:00.478Z,84.60
2018-08-09T06:20:29.937Z,84.50
2018-08-09T06:22:59.450Z,84.80
2018-08-09T06:25:28.950Z,85.20
2018-08-09T06:27:58.514Z,84.40
2018-08-09T06:30:28.228Z,83.90
2018-08-09T06:32:57.847Z,83.50
2018-08-09T06:35:27.411Z,83.50
2018-08-09T06:37:56.923Z,83.10
2018-08-09T06:40:26.491Z,82.50
2018-08-09T06:42:55.990Z,83.10
2018-08-09T06:45:25.485Z,82.10
2018-08-09T06:47:54.945Z,82.10
2018-08-09T06:50:24.381Z,82.10
2018-08-09T06:52:53.863Z,81.80
2018-08-09T06:55:23.420Z,82.00
2018-08-09T06:57:52.881Z,81.40
2018-08-09T07:00:22.438Z,80.80
2018-08-09T07:02:51.949Z,80.70
2018-08-09T07:05:21.458Z,80.40
2018-08-09T07:07:50.967Z,80.90
2018-08-09T07:10:20.478Z,81.00
2018-08-09T07:12:50.009Z,80.70
2018-08-09T07:15:19.538Z,81.00
2018-08-09T07:17:49.003Z,80.80
2018-08-09T07:20:18.564Z,79.70
2018-08-09T07:22:47.984Z,79.50
2018-08-09T07:25:17.426Z,79.30
2018-08-09T07:27:46.946Z,78.70
2018-08-09T07:30:16.457Z,78.40
2018-08-09T07:32:46.057Z,78.10
2018-08-09T07:35:15.557Z,78.10
2018-08-09T07:37:45.039Z,78.10
2018-08-09T07:40:14.475Z,78.20
2018-08-09T07:42:43.969Z,77.50
2018-08-09T07:45:14.219Z,77.00
2018-08-09T07:47:43.831Z,76.90
2018-08-09T07:50:13.271Z,77.10
2018-08-09T07:52:42.812Z,76.60
2018-08-09T07:55:12.271Z,76.60
2018-08-09T07:57:41.733Z,76.30
2018-08-09T08:00:12.237Z,76.30
2018-08-09T08:02:42.217Z,75.00
2018-08-09T08:05:11.698Z,75.30
2018-08-09T08:07:41.187Z,74.60
2018-08-09T08:10:11.040Z,73.80
2018-08-09T08:12:40.724Z,73.40
2018-08-09T08:15:11.391Z,73.60
2018-08-09T08:17:40.907Z,74.00
2018-08-09T08:20:11.168Z,74.30
2018-08-09T08:22:40.694Z,74.10
2018-08-09T08:25:10.190Z,74.10
2018-08-09T08:27:39.661Z,73.50
2018-08-09T08:30:11.614Z,72.90
2018-08-09T08:32:41.953Z,73.20
2018-08-09T08:35:11.861Z,72.70
2018-08-09T08:37:41.869Z,72.00
2018-08-09T08:40:11.455Z,70.90
2018-08-09T08:42:41.014Z,70.90
2018-08-09T08:45:12.826Z,71.00
2018-08-09T08:47:43.001Z,71.40
2018-08-09T08:50:12.958Z,70.40
2018-08-09T08:52:42.798Z,69.90
2018-08-09T08:55:12.949Z,70.10
2018-08-09T08:57:42.582Z,69.90
2018-08-09T09:00:13.255Z,68.90
2018-08-09T09:02:42.779Z,68.60
2018-08-09T09:05:13.158Z,67.50
2018-08-09T09:07:42.655Z,67.00
2018-08-09T09:10:13.355Z,67.40
2018-08-09T09:12:42.994Z,66.90
2018-08-09T09:15:14.246Z,66.90
2018-08-09T09:17:44.367Z,66.20
2018-08-09T09:20:16.035Z,66.20
2018-08-09T09:22:45.849Z,65.90
2018-08-09T09:25:15.346Z,66.20
2018-08-09T09:27:44.971Z,65.90
2018-08-09T09:30:15.799Z,65.40
2018-08-09T09:32:45.627Z,64.40
2018-08-09T09:35:15.128Z,64.50
2018-08-09T09:37:44.852Z,63.40
2018-08-09T09:40:14.380Z,63.60
2018-08-09T09:42:43.970Z,63.00
2018-08-09T09:45:13.604Z,62.90
2018-08-09T09:47:43.296Z,63.00
2018-08-09T09:50:12.994Z,62.10
2018-08-09T09:52:42.518Z,62.50
2018-08-09T09:55:12.129Z,62.00
2018-08-09T09:57:41.590Z,61.50
2018-08-09T10:00:16.228Z,61.30
2018-08-09T10:02:46.743Z,61.30
2018-08-09T10:05:16.807Z,60.10
2018-08-09T10:07:46.275Z,61.20
2018-08-09T10:10:16.144Z,61.00
2018-08-09T10:12:45.585Z,59.50
2018-08-09T10:15:15.044Z,59.90
2018-08-09T10:17:44.630Z,60.10
2018-08-09T10:20:14.078Z,59.50
2018-08-09T10:22:43.498Z,59.50
2018-08-09T10:25:12.944Z,59.70
2018-08-09T10:27:42.386Z,59.40
2018-08-09T10:30:11.888Z,60.60
2018-08-09T10:32:41.420Z,60.50
2018-08-09T10:35:10.867Z,60.60
2018-08-09T10:37:40.388Z,60.90
2018-08-09T10:40:09.947Z,59.80
2018-08-09T10:42:39.478Z,60.30
2018-08-09T10:45:09.072Z,59.80
2018-08-09T10:47:38.757Z,59.50
2018-08-09T10:50:08.246Z,58.60
2018-08-09T10:52:37.737Z,59.00
2018-08-09T10:55:07.586Z,59.40
2018-08-09T10:57:37.151Z,57.00
2018-08-09T11:00:08.615Z,57.50
2018-08-09T11:02:38.074Z,56.80
2018-08-09T11:05:08.018Z,56.50
2018-08-09T11:07:37.587Z,56.80
2018-08-09T11:10:08.218Z,56.90
2018-08-09T11:12:37.762Z,57.20
2018-08-09T11:15:09.453Z,57.10
2018-08-09T11:17:39.079Z,57.80
2018-08-09T11:20:08.584Z,57.80
2018-08-09T11:22:38.407Z,57.80
2018-08-09T11:25:08.634Z,57.60
2018-08-09T11:27:39.154Z,57.20
2018-08-09T11:30:08.728Z,57.00
2018-08-09T11:32:38.239Z,56.90
2018-08-09T11:35:07.718Z,56.20
2018-08-09T11:37:37.160Z,56.00
2018-08-09T11:40:06.610Z,55.40
2018-08-09T11:42:36.070Z,54.80
2018-08-09T11:45:05.883Z,55.10
2018-08-09T11:47:36.083Z,54.80
2018-08-09T11:50:05.823Z,54.30
2018-08-09T11:52:35.254Z,54.70
2018-08-09T11:55:04.698Z,54.20
2018-08-09T11:57:34.122Z,53.60
2018-08-09T12:00:03.656Z,52.40
2018-08-09T12:02:33.091Z,52.60
2018-08-09T12:05:02.581Z,52.80
2018-08-09T12:07:32.014Z,52.90
2018-08-09T12:10:01.478Z,52.80
2018-08-09T12:12:30.909Z,52.70
2018-08-09T12:15:00.379Z,51.80
2018-08-09T12:17:30.229Z,51.80
2018-08-09T12:19:59.729Z,50.90
2018-08-09T12:22:29.277Z,50.90
2018-08-09T12:24:58.752Z,50.90
2018-08-09T12:30:12.705Z,50.00
2018-08-09T12:32:42.216Z,49.60
2018-08-09T12:35:12.647Z,49.50
2018-08-09T12:37:43.281Z,48.10
2018-08-09T12:40:13.524Z,48.30
2018-08-09T12:42:43.032Z,48.20
2018-08-09T12:45:13.079Z,47.60
2018-08-09T12:47:42.715Z,47.70
2018-08-09T12:50:14.291Z,48.30
2018-08-09T12:52:44.637Z,47.80
2018-08-09T12:55:14.752Z,47.50
2018-08-09T12:57:44.267Z,47.00
2018-08-09T13:00:14.310Z,46.70
2018-08-09T13:02:43.899Z,46.70
2018-08-09T13:05:13.617Z,47.00
2018-08-09T13:07:43.173Z,46.80
2018-08-09T13:10:13.898Z,46.50
2018-08-09T13:12:43.439Z,45.40
2018-08-09T13:15:14.068Z,45.60
2018-08-09T13:17:44.599Z,45.40
2018-08-09T13:20:17.893Z,45.10
2018-08-09T13:22:48.175Z,45.00
2018-08-09T13:25:17.730Z,45.10
2018-08-09T13:27:47.690Z,44.20
2018-08-09T13:30:17.416Z,44.60
2018-08-09T13:32:46.912Z,44.70
2018-08-09T13:35:16.354Z,44.00
2018-08-09T13:37:45.870Z,44.50
2018-08-09T13:40:15.337Z,43.90
2018-08-09T13:42:44.854Z,43.00
2018-08-09T13:45:15.746Z,43.20
2018-08-09T13:47:45.301Z,42.10
2018-08-09T13:50:14.809Z,42.70
2018-08-09T13:52:44.278Z,41.00
2018-08-09T13:55:14.943Z,42.10
2018-08-09T13:57:44.876Z,42.00
2018-08-09T14:00:14.918Z,42.10
2018-08-09T14:02:45.565Z,42.20
2018-08-09T14:05:15.194Z,42.00
2018-08-09T14:07:44.848Z,42.30
2018-08-09T14:10:14.515Z,42.50
2018-08-09T14:12:44.099Z,41.50
2018-08-09T14:15:14.837Z,41.70
2018-08-09T14:17:44.482Z,42.10
2018-08-09T14:20:16.232Z,42.70
2018-08-09T14:22:45.846Z,42.10
2018-08-09T14:25:15.501Z,42.20
2018-08-09T14:27:45.316Z,41.70
2018-08-09T14:30:15.885Z,41.90
2018-08-09T14:32:45.863Z,41.40
2018-08-09T14:35:16.538Z,41.90
2018-08-09T14:37:46.863Z,42.50
2018-08-09T14:40:16.772Z,42.70
2018-08-09T14:42:46.499Z,41.90
2018-08-09T14:45:16.989Z,40.80
2018-08-09T14:47:46.650Z,40.70
2018-08-09T14:50:16.294Z,41.00
2018-08-09T14:52:45.912Z,41.10
2018-08-09T14:55:15.492Z,41.70
2018-08-09T14:57:45.113Z,41.30
2018-08-09T15:00:17.339Z,40.30
2018-08-09T15:02:47.350Z,39.20
2018-08-09T15:05:17.626Z,38.90
2018-08-09T15:07:47.276Z,38.80
2018-08-09T15:10:18.016Z,39.60
2018-08-09T15:12:47.676Z,38.70
2018-08-09T15:15:17.339Z,38.80
2018-08-09T15:17:46.953Z,38.30
2018-08-09T15:20:16.521Z,38.20
2018-08-09T15:22:46.109Z,38.50
2018-08-09T15:25:15.765Z,37.70
2018-08-09T15:27:45.349Z,37.30
2018-08-09T15:30:18.309Z,37.10
2018-08-09T15:32:48.355Z,37.10
2018-08-09T15:35:18.147Z,37.60
2018-08-09T15:37:47.763Z,37.60
2018-08-09T15:40:17.383Z,37.30
2018-08-09T15:42:47.120Z,36.80
2018-08-09T15:45:17.096Z,37.40
2018-08-09T15:47:46.739Z,37.60
2018-08-09T15:50:18.244Z,36.80
2018-08-09T15:52:47.926Z,36.20
2018-08-09T15:55:18.268Z,36.70
2018-08-09T15:57:48.012Z,36.70
2018-08-09T16:00:19.932Z,36.70
2018-08-09T16:02:49.500Z,36.70
2018-08-09T16:05:19.134Z,36.80
2018-08-09T16:07:48.758Z,36.40
2018-08-09T16:10:18.793Z,37.00
2018-08-09T16:12:48.865Z,37.50
2018-08-09T16:15:19.562Z,36.80
2018-08-09T16:17:49.861Z,37.60
2018-08-09T16:20:19.462Z,37.30
2018-08-09T16:22:49.036Z,36.40
2018-08-09T16:25:19.688Z,36.20
2018-08-09T16:27:50.119Z,36.00
2018-08-09T16:30:22.904Z,36.20
2018-08-09T16:32:52.579Z,36.10
2018-08-09T16:35:22.262Z,36.30
2018-08-09T16:37:52.001Z,36.20
2018-08-09T16:40:23.141Z,36.20
2018-08-09T16:42:52.775Z,35.70
2018-08-09T16:45:23.575Z,35.70
2018-08-09T16:47:54.091Z,35.60
2018-08-09T16:50:25.229Z,35.70
2018-08-09T16:52:55.009Z,35.90
2018-08-09T16:55:25.360Z,35.90
2018-08-09T16:57:55.007Z,36.10
2018-08-09T17:00:25.238Z,36.00
2018-08-09T17:02:55.382Z,36.30
2018-08-09T17:05:26.188Z,36.40
2018-08-09T17:07:56.079Z,35.70
2018-08-09T17:10:26.353Z,36.20
2018-08-09T17:12:56.093Z,35.90
2018-08-09T17:15:28.488Z,36.30
2018-08-09T17:17:58.763Z,36.60
2018-08-09T17:20:31.397Z,36.20
2018-08-09T17:23:02.162Z,35.80
2018-08-09T17:25:31.851Z,36.00
2018-08-09T17:28:01.476Z,36.30
2018-08-09T17:30:31.156Z,36.40
2018-08-09T17:33:00.854Z,36.30
2018-08-09T17:35:30.474Z,36.30
2018-08-09T17:38:00.027Z,36.40
2018-08-09T17:40:33.369Z,36.40
2018-08-09T17:43:03.942Z,36.60
2018-08-09T17:45:34.533Z,36.30
2018-08-09T17:48:04.658Z,36.30
2018-08-09T17:50:34.413Z,36.50
2018-08-09T17:53:04.846Z,36.80
2018-08-09T17:55:34.590Z,37.30
2018-08-09T17:58:04.220Z,37.60
2018-08-09T18:00:34.988Z,37.20
2018-08-09T18:03:04.996Z,37.30
2018-08-09T18:05:35.801Z,37.70
2018-08-09T18:08:05.719Z,37.60
2018-08-09T18:10:36.525Z,38.10
2018-08-09T18:13:06.139Z,38.30
2018-08-09T18:15:35.798Z,38.50
2018-08-09T18:18:06.927Z,38.70
2018-08-09T18:20:37.736Z,39.20
2018-08-09T18:23:07.626Z,39.30
2018-08-09T18:25:37.346Z,39.60
2018-08-09T18:28:07.364Z,40.00
2018-08-09T18:30:37.060Z,40.40
2018-08-09T18:33:06.819Z,40.90
2018-08-09T18:35:36.476Z,41.30
2018-08-09T18:38:06.181Z,41.30
2018-08-09T18:40:35.957Z,41.20
2018-08-09T18:43:05.703Z,41.60
2018-08-09T18:45:35.384Z,42.20
2018-08-09T18:48:05.198Z,42.60
2018-08-09T18:50:34.906Z,42.80
2018-08-09T18:53:04.683Z,43.10
2018-08-09T18:55:34.546Z,44.00
2018-08-09T18:58:04.315Z,43.70
2018-08-09T19:00:34.064Z,44.30
2018-08-09T19:03:03.761Z,44.70
2018-08-09T19:05:33.379Z,45.20
2018-08-09T19:08:03.010Z,45.30
2018-08-09T19:10:32.736Z,45.90
2018-08-09T19:13:02.575Z,46.50
2018-08-09T19:15:32.261Z,47.10
2018-08-09T19:18:01.883Z,47.60
2018-08-09T19:20:33.212Z,48.10
2018-08-09T19:23:03.129Z,48.60
2018-08-09T19:25:32.858Z,48.80
2018-08-09T19:28:02.702Z,49.20
2018-08-09T19:30:32.308Z,49.50
2018-08-09T19:33:02.199Z,49.80
2018-08-09T19:35:31.911Z,49.50
2018-08-09T19:38:02.093Z,49.50
2018-08-09T19:40:31.739Z,49.60
2018-08-09T19:43:01.356Z,50.40
2018-08-09T19:45:32.250Z,50.90
2018-08-09T19:48:01.894Z,51.30
2018-08-09T19:50:31.499Z,51.60
2018-08-09T19:53:01.245Z,52.10
2018-08-09T19:55:30.952Z,52.50
2018-08-09T19:58:00.563Z,52.90
2018-08-09T20:00:31.252Z,53.30
2018-08-09T20:03:01.020Z,53.60
2018-08-09T20:05:30.625Z,53.50
2018-08-09T20:08:00.360Z,53.70
2018-08-09T20:10:30.083Z,53.90
2018-08-09T20:12:59.764Z,54.20
2018-08-09T20:15:29.480Z,54.50
2018-08-09T20:17:59.089Z,54.70
2018-08-09T20:20:28.642Z,54.80
2018-08-09T20:22:58.315Z,55.00
2018-08-09T20:25:27.980Z,55.20
2018-08-09T20:27:57.560Z,55.30
2018-08-09T20:30:27.225Z,55.40
2018-08-09T20:32:56.837Z,55.90
2018-08-09T20:35:26.450Z,55.90
2018-08-09T20:37:56.064Z,56.10
2018-08-09T20:40:25.658Z,56.20
2018-08-09T20:42:55.431Z,56.40
2018-08-09T20:45:25.406Z,56.50
2018-08-09T20:47:55.038Z,56.30
2018-08-09T20:50:26.300Z,56.20
2018-08-09T20:52:56.009Z,56.40
2018-08-09T20:55:25.684Z,56.30
2018-08-09T20:57:56.128Z,56.70
2018-08-09T21:00:27.393Z,57.10
2018-08-09T21:02:58.370Z,57.00
2018-08-09T21:05:29.593Z,57.00
2018-08-09T21:07:59.286Z,57.20
2018-08-09T21:10:29.230Z,56.90
2018-08-09T21:12:58.811Z,56.90
2018-08-09T21:15:28.342Z,57.30
2018-08-09T21:17:57.981Z,57.40
2018-08-09T21:20:27.598Z,57.40
2018-08-09T21:22:57.144Z,57.50
2018-08-09T21:25:26.791Z,57.50
2018-08-09T21:27:56.588Z,57.60
2018-08-09T21:30:26.226Z,57.70
2018-08-09T21:32:55.734Z,58.10
2018-08-09T21:35:25.291Z,58.40
2018-08-09T21:37:54.920Z,58.70
2018-08-09T21:40:24.563Z,59.10
2018-08-09T21:42:54.245Z,59.50
2018-08-09T21:45:23.794Z,59.90
2018-08-09T21:47:53.394Z,60.30
2018-08-09T21:50:23.113Z,60.60
2018-08-09T21:52:52.711Z,60.70
2018-08-09T21:55:22.269Z,61.00
2018-08-09T21:57:51.842Z,61.10
2018-08-09T22:01:01.008Z,61.20
2018-08-09T22:03:33.839Z,61.10
2018-08-09T22:06:08.614Z,61.30
2018-08-09T22:08:43.499Z,61.40
2018-08-09T22:11:18.824Z,61.50
2018-08-09T22:13:53.673Z,62.30
2018-08-09T22:16:28.399Z,61.50
2018-08-09T22:19:03.232Z,61.60
2018-08-09T22:21:37.963Z,61.70
2018-08-09T22:24:07.573Z,62.00
2018-08-09T22:26:37.132Z,62.40
2018-08-09T22:29:06.665Z,62.60
2018-08-09T22:31:36.276Z,62.70
2018-08-09T22:34:05.844Z,63.00
2018-08-09T22:36:35.526Z,63.00
2018-08-09T22:39:08.194Z,63.20
2018-08-09T22:41:37.823Z,63.30
2018-08-09T22:44:07.329Z,63.70
2018-08-09T22:46:36.987Z,63.80
2018-08-09T22:49:06.631Z,64.20
2018-08-09T22:51:36.129Z,64.60
2018-08-09T22:54:05.999Z,64.80
2018-08-09T22:56:35.547Z,64.90
2018-08-09T22:59:05.498Z,65.10
2018-08-09T23:01:35.093Z,65.00
2018-08-09T23:04:04.680Z,64.80
2018-08-09T23:06:34.223Z,64.80
2018-08-09T23:09:04.195Z,64.70
2018-08-09T23:11:33.877Z,64.40
2018-08-09T23:14:03.487Z,64.40
2018-08-09T23:16:33.098Z,64.10
2018-08-09T23:19:02.719Z,64.10
2018-08-09T23:21:32.384Z,63.80
2018-08-09T23:24:01.972Z,63.30
2018-08-09T23:26:31.617Z,63.00
2018-08-09T23:29:01.160Z,62.90
2018-08-09T23:31:30.754Z,62.70
2018-08-09T23:34:00.295Z,62.70
2018-08-09T23:36:29.853Z,62.60
2018-08-09T23:38:59.358Z,62.40
2018-08-09T23:41:28.911Z,62.30
2018-08-09T23:43:58.414Z,62.40
2018-08-09T23:46:27.923Z,62.20
2018-08-09T23:48:57.428Z,62.10
2018-08-09T23:51:27.046Z,61.90
2018-08-09T23:53:56.664Z,61.70
2018-08-09T23:56:26.273Z,61.50
2018-08-09T23:58:55.842Z,61.60
